createdAt,value
2022-09-17T00:01:50.022Z,82.50
2022-09-17T00:04:17.218Z,82.03
2022-09-17T00:06:44.415Z,80.77
2022-09-17T00:09:12.010Z,80.79
2022-09-17T00:11:40.586Z,81.94
2022-09-17T00:14:09.393Z,82.07
2022-09-17T00:16:38.070Z,80.75
2022-09-17T00:19:06.062Z,79.88
2022-09-17T00:21:33.253Z,78.57
2022-09-17T00:24:01.721Z,79.68
2022-09-17T00:26:29.653Z,78.19
2022-09-17T00:28:57.718Z,77.03
2022-09-17T00:31:25.516Z,77.38
2022-09-17T00:33:53.215Z,77.51
2022-09-17T00:36:20.978Z,77.79
2022-09-17T00:38:49.006Z,79.67
2022-09-17T00:41:16.194Z,80.15
2022-09-17T00:43:51.050Z,79.89
2022-09-17T00:46:37.201Z,80.93
2022-09-17T00:49:14.018Z,80.99
2022-09-17T00:51:44.430Z,81.09
2022-09-17T00:54:11.840Z,81.81
2022-09-17T00:56:40.157Z,80.78
2022-09-17T00:59:08.079Z,79.99
2022-09-17T01:01:35.963Z,81.43
2022-09-17T01:04:03.562Z,81.91
2022-09-17T01:06:33.530Z,82.18
2022-09-17T01:09:00.708Z,83.89
2022-09-17T01:11:37.562Z,83.75
2022-09-17T01:14:16.584Z,84.33
2022-09-17T01:16:53.763Z,85.85
2022-09-17T01:19:30.089Z,84.99
2022-09-17T01:22:07.469Z,85.18
2022-09-17T01:24:37.629Z,85.91
2022-09-17T01:27:25.339Z,85.52
2022-09-17T01:30:12.409Z,85.35
2022-09-17T01:32:49.610Z,82.28
2022-09-17T01:35:26.426Z,80.81
2022-09-17T01:38:00.328Z,79.69
2022-09-17T01:40:37.808Z,78.75
2022-09-17T01:43:21.414Z,77.57
2022-09-17T01:45:52.713Z,78.22
2022-09-17T01:48:21.178Z,76.72
2022-09-17T01:51:08.888Z,77.47
2022-09-17T01:53:45.346Z,77.18
2022-09-17T01:56:16.406Z,76.23
2022-09-17T01:58:46.072Z,75.79
2022-09-17T02:01:15.222Z,75.47
2022-09-17T02:03:49.435Z,75.66
2022-09-17T02:06:19.440Z,74.91
2022-09-17T02:08:55.081Z,74.51
2022-09-17T02:11:22.696Z,74.11
2022-09-17T02:14:00.560Z,73.39
2022-09-17T02:16:33.014Z,73.42
2022-09-17T02:19:03.477Z,73.14
2022-09-17T02:21:39.242Z,73.27
2022-09-17T02:24:11.725Z,72.45
2022-09-17T02:26:41.526Z,72.25
2022-09-17T02:29:14.142Z,73.00
2022-09-17T02:31:42.699Z,74.12
2022-09-17T02:34:11.294Z,72.82
2022-09-17T02:36:38.642Z,73.35
2022-09-17T02:39:05.870Z,72.68
2022-09-17T02:42:02.116Z,72.08
2022-09-17T02:44:46.961Z,72.42
2022-09-17T02:47:47.386Z,72.32
2022-09-17T02:50:14.906Z,72.01
2022-09-17T02:52:55.073Z,71.93
2022-09-17T02:55:23.045Z,71.84
2022-09-17T02:57:56.404Z,71.71
2022-09-17T03:00:24.240Z,72.38
2022-09-17T03:03:00.122Z,71.88
2022-09-17T03:05:28.926Z,70.51
2022-09-17T03:07:57.148Z,70.41
2022-09-17T03:10:24.427Z,69.01
2022-09-17T03:12:53.649Z,68.28
2022-09-17T03:15:20.830Z,68.17
2022-09-17T03:17:52.576Z,66.78
2022-09-17T03:20:20.835Z,66.69
2022-09-17T03:22:48.030Z,66.53
2022-09-17T03:25:15.279Z,67.04
2022-09-17T03:27:42.488Z,66.35
2022-09-17T03:30:09.928Z,66.51
2022-09-17T03:32:37.129Z,66.68
2022-09-17T03:35:04.609Z,66.25
2022-09-17T03:37:33.151Z,66.64
2022-09-17T03:40:00.627Z,67.11
2022-09-17T03:42:28.009Z,66.56
2022-09-17T03:44:55.358Z,66.14
2022-09-17T03:47:22.733Z,65.93
2022-09-17T03:49:50.042Z,66.14
2022-09-17T03:52:17.256Z,65.70
2022-09-17T03:54:44.462Z,65.41
2022-09-17T03:57:11.656Z,66.60
2022-09-17T03:59:38.979Z,70.05
2022-09-17T04:02:07.088Z,73.41
2022-09-17T04:04:34.491Z,73.24
2022-09-17T04:07:01.769Z,78.19
2022-09-17T04:09:29.945Z,80.63
2022-09-17T04:11:57.330Z,82.67
2022-09-17T04:14:24.513Z,84.39
2022-09-17T04:16:51.735Z,87.52
2022-09-17T04:19:18.958Z,83.97
2022-09-17T04:21:46.171Z,83.19
2022-09-17T04:24:13.381Z,82.95
2022-09-17T04:26:41.075Z,84.57
2022-09-17T04:29:08.331Z,83.57
2022-09-17T04:31:35.832Z,81.27
2022-09-17T04:34:03.185Z,85.77
2022-09-17T04:36:30.374Z,80.46
2022-09-17T04:38:57.647Z,84.26
2022-09-17T04:41:26.054Z,83.76
2022-09-17T04:43:53.256Z,81.07
2022-09-17T04:46:20.492Z,87.03
2022-09-17T04:48:47.807Z,89.00
2022-09-17T04:51:14.991Z,89.63
2022-09-17T04:53:42.195Z,86.92
2022-09-17T04:56:09.391Z,90.36
2022-09-17T04:58:36.696Z,92.03
2022-09-17T05:01:03.958Z,92.21
2022-09-17T05:03:31.215Z,84.98
2022-09-17T05:05:58.519Z,90.74
2022-09-17T05:08:25.870Z,96.11
2022-09-17T05:10:53.069Z,94.24
2022-09-17T05:13:20.338Z,94.91
2022-09-17T05:15:47.610Z,93.10
2022-09-17T05:18:14.973Z,92.50
2022-09-17T05:20:42.938Z,93.14
2022-09-17T05:23:10.529Z,98.25
2022-09-17T05:25:37.713Z,95.22
2022-09-17T05:28:05.028Z,93.97
2022-09-17T05:30:32.378Z,91.67
2022-09-17T05:33:03.740Z,93.08
2022-09-17T05:35:31.543Z,89.48
2022-09-17T05:38:02.641Z,90.28
2022-09-17T05:40:30.531Z,91.37
2022-09-17T05:43:03.322Z,92.49
2022-09-17T05:45:30.852Z,91.00
2022-09-17T05:47:58.830Z,93.69
2022-09-17T05:50:26.635Z,93.91
2022-09-17T05:52:54.363Z,96.83
2022-09-17T05:55:22.561Z,91.63
2022-09-17T05:57:50.221Z,90.48
2022-09-17T06:00:17.590Z,93.86
2022-09-17T06:02:44.935Z,91.66
2022-09-17T06:05:12.281Z,91.92
2022-09-17T06:07:39.960Z,90.33
2022-09-17T06:10:08.295Z,88.59
2022-09-17T06:12:38.358Z,88.44
2022-09-17T06:15:05.793Z,87.78
2022-09-17T06:17:33.990Z,87.66
2022-09-17T06:20:01.380Z,89.95
2022-09-17T06:22:28.581Z,87.71
2022-09-17T06:24:55.797Z,88.13
2022-09-17T06:27:23.041Z,87.34
2022-09-17T06:29:50.245Z,88.50
2022-09-17T06:32:17.464Z,89.23
2022-09-17T06:34:44.673Z,94.06
2022-09-17T06:37:11.862Z,95.91
2022-09-17T06:39:40.119Z,97.30
2022-09-17T06:42:07.854Z,95.80
2022-09-17T06:44:35.080Z,95.35
2022-09-17T06:47:02.324Z,97.77
2022-09-17T06:49:31.156Z,96.80
2022-09-17T06:51:58.428Z,96.02
2022-09-17T06:54:25.625Z,89.18
2022-09-17T06:56:52.797Z,88.33
2022-09-17T06:59:20.072Z,85.55
2022-09-17T07:01:47.835Z,85.70
2022-09-17T07:04:15.100Z,85.53
2022-09-17T07:06:43.262Z,85.54
2022-09-17T07:09:11.246Z,83.02
2022-09-17T07:11:39.048Z,88.45
2022-09-17T07:14:07.009Z,90.93
2022-09-17T07:16:35.932Z,89.71
2022-09-17T07:19:03.945Z,91.50
2022-09-17T07:21:31.299Z,89.65
2022-09-17T07:23:58.685Z,93.62
2022-09-17T07:26:25.858Z,83.02
2022-09-17T07:28:52.996Z,88.21
2022-09-17T07:31:20.257Z,92.80
2022-09-17T07:33:47.447Z,94.27
2022-09-17T07:36:17.909Z,86.50
2022-09-17T07:38:45.400Z,96.90
2022-09-17T07:41:14.131Z,96.38
2022-09-17T07:43:41.973Z,96.32
2022-09-17T07:46:13.441Z,96.89
2022-09-17T07:48:40.878Z,98.62
2022-09-17T07:51:08.138Z,99.47
2022-09-17T07:53:35.321Z,100.00
2022-09-17T07:56:02.473Z,100.00
2022-09-17T07:58:30.693Z,100.00
2022-09-17T08:01:04.986Z,100.00
2022-09-17T08:03:32.247Z,100.00
2022-09-17T08:06:04.075Z,100.00
2022-09-17T08:08:35.819Z,100.00
2022-09-17T08:11:04.077Z,100.00
2022-09-17T08:13:31.317Z,100.00
2022-09-17T08:16:01.181Z,100.00
2022-09-17T08:18:28.691Z,99.13
2022-09-17T08:20:59.680Z,95.19
2022-09-17T08:23:28.149Z,93.10
2022-09-17T08:25:55.983Z,89.73
2022-09-17T08:28:24.701Z,86.44
2022-09-17T08:30:52.758Z,81.70
2022-09-17T08:33:20.483Z,80.48
2022-09-17T08:35:51.569Z,77.73
2022-09-17T08:38:18.855Z,73.96
2022-09-17T08:41:09.448Z,80.13
2022-09-17T08:43:44.558Z,81.87
2022-09-17T08:46:11.815Z,81.24
2022-09-17T08:48:48.113Z,79.28
2022-09-17T08:51:25.015Z,83.85
2022-09-17T08:54:02.348Z,83.34
2022-09-17T08:56:32.866Z,70.23
2022-09-17T08:59:00.178Z,68.07
2022-09-17T09:01:43.582Z,69.13
2022-09-17T09:04:10.964Z,64.71
2022-09-17T09:06:42.909Z,64.89
2022-09-17T09:09:17.023Z,64.83
2022-09-17T09:11:45.400Z,68.01
2022-09-17T09:14:27.730Z,67.55
2022-09-17T09:16:56.636Z,74.15
2022-09-17T09:19:25.603Z,71.15
2022-09-17T09:22:05.077Z,74.73
2022-09-17T09:24:50.691Z,75.66
2022-09-17T09:27:19.178Z,77.44
2022-09-17T09:29:52.448Z,76.36
2022-09-17T09:32:37.170Z,77.84
2022-09-17T09:35:15.784Z,77.73
2022-09-17T09:37:45.267Z,79.72
2022-09-17T09:40:30.544Z,79.13
2022-09-17T09:43:00.783Z,80.36
2022-09-17T09:45:37.260Z,78.42
2022-09-17T09:48:10.660Z,76.08
2022-09-17T09:51:05.749Z,78.41
2022-09-17T09:53:53.821Z,74.74
2022-09-17T09:56:30.848Z,73.85
2022-09-17T09:58:58.119Z,73.02
2022-09-17T10:01:27.145Z,72.37
2022-09-17T10:03:58.181Z,72.24
2022-09-17T10:06:29.541Z,72.66
2022-09-17T10:08:56.760Z,72.57
2022-09-17T10:11:28.248Z,72.57
2022-09-17T10:14:15.123Z,73.37
2022-09-17T10:16:42.271Z,73.56
2022-09-17T10:19:09.408Z,74.53
2022-09-17T10:21:37.982Z,70.95
2022-09-17T10:24:11.837Z,72.61
2022-09-17T10:26:39.045Z,72.88
2022-09-17T10:29:12.683Z,75.25
2022-09-17T10:31:49.086Z,75.52
2022-09-17T10:34:20.813Z,75.52
2022-09-17T10:36:48.196Z,73.91
2022-09-17T10:39:27.333Z,75.03
2022-09-17T10:41:54.732Z,72.54
2022-09-17T10:44:23.079Z,74.25
2022-09-17T10:46:51.819Z,74.47
2022-09-17T10:49:37.857Z,72.22
2022-09-17T10:52:25.308Z,73.58
2022-09-17T10:55:16.580Z,74.01
2022-09-17T10:57:46.441Z,74.83
2022-09-17T11:00:20.750Z,75.59
2022-09-17T11:03:06.869Z,75.57
2022-09-17T11:05:39.883Z,76.24
2022-09-17T11:08:19.796Z,76.17
2022-09-17T11:10:46.968Z,76.52
2022-09-17T11:13:20.026Z,75.85
2022-09-17T11:15:59.504Z,75.38
2022-09-17T11:18:37.602Z,75.43
2022-09-17T11:21:08.584Z,74.45
2022-09-17T11:23:51.015Z,71.81
2022-09-17T11:26:31.315Z,70.07
2022-09-17T11:29:17.004Z,70.67
2022-09-17T11:32:03.073Z,71.76
2022-09-17T11:34:56.747Z,71.98
2022-09-17T11:37:26.818Z,72.76
2022-09-17T11:39:57.706Z,68.67
2022-09-17T11:42:29.259Z,67.42
2022-09-17T11:45:02.570Z,70.00
2022-09-17T11:47:32.879Z,71.08
2022-09-17T11:50:06.213Z,68.88
2022-09-17T11:52:39.566Z,69.58
2022-09-17T11:55:25.068Z,71.55
2022-09-17T11:57:57.936Z,69.67
2022-09-17T12:00:25.413Z,70.33
2022-09-17T12:02:58.736Z,72.31
2022-09-17T12:05:28.691Z,70.17
2022-09-17T12:07:55.924Z,69.88
2022-09-17T12:10:35.550Z,68.41
2022-09-17T12:13:14.173Z,67.43
2022-09-17T12:15:44.141Z,66.53
2022-09-17T12:18:33.478Z,66.52
2022-09-17T12:21:02.956Z,66.45
2022-09-17T12:24:08.892Z,67.15
2022-09-17T12:26:51.515Z,66.03
2022-09-17T12:29:37.040Z,65.56
2022-09-17T12:32:22.987Z,65.13
2022-09-17T12:35:08.966Z,64.82
2022-09-17T12:37:42.725Z,61.86
2022-09-17T12:40:13.124Z,62.73
2022-09-17T12:42:43.378Z,63.00
2022-09-17T12:45:25.809Z,61.76
2022-09-17T12:47:56.071Z,63.77
2022-09-17T12:50:36.649Z,65.49
2022-09-17T12:53:39.336Z,63.49
2022-09-17T12:56:06.704Z,63.33
2022-09-17T12:58:50.780Z,62.75
2022-09-17T13:01:25.268Z,62.99
2022-09-17T13:03:56.448Z,62.32
2022-09-17T13:06:42.609Z,63.51
2022-09-17T13:09:12.585Z,61.85
2022-09-17T13:11:45.975Z,61.89
2022-09-17T13:14:24.439Z,62.82
2022-09-17T13:17:00.452Z,61.43
2022-09-17T13:19:27.542Z,62.32
2022-09-17T13:22:00.421Z,63.35
2022-09-17T13:24:31.100Z,62.37
2022-09-17T13:27:01.326Z,63.07
2022-09-17T13:29:44.626Z,62.71
2022-09-17T13:32:30.479Z,60.88
2022-09-17T13:34:57.601Z,61.96
2022-09-17T13:37:26.316Z,62.09
2022-09-17T13:39:53.631Z,63.57
2022-09-17T13:42:21.206Z,64.35
2022-09-17T13:44:53.578Z,61.61
2022-09-17T13:47:20.873Z,62.99
2022-09-17T13:49:50.445Z,62.12
2022-09-17T13:52:34.834Z,62.18
2022-09-17T13:55:02.636Z,60.93
2022-09-17T13:57:33.522Z,60.81
2022-09-17T14:00:01.036Z,61.01
2022-09-17T14:02:30.944Z,60.98
2022-09-17T14:05:18.003Z,61.54
2022-09-17T14:07:47.338Z,59.09
2022-09-17T14:10:14.457Z,60.38
2022-09-17T14:12:41.641Z,60.49
2022-09-17T14:15:27.465Z,60.65
2022-09-17T14:17:54.682Z,58.88
2022-09-17T14:20:22.793Z,60.83
2022-09-17T14:23:00.607Z,61.71
2022-09-17T14:25:48.443Z,60.72
2022-09-17T14:28:29.772Z,60.67
2022-09-17T14:30:57.176Z,60.53
2022-09-17T14:33:30.592Z,60.28
2022-09-17T14:36:08.189Z,58.80
2022-09-17T14:38:35.471Z,59.16
2022-09-17T14:41:07.668Z,60.39
2022-09-17T14:43:40.962Z,61.15
2022-09-17T14:46:10.463Z,61.06
2022-09-17T14:48:37.876Z,61.46
2022-09-17T14:51:17.683Z,61.18
2022-09-17T14:53:45.662Z,59.41
2022-09-17T14:56:14.782Z,59.33
2022-09-17T14:58:43.749Z,61.22
2022-09-17T15:01:22.693Z,60.97
2022-09-17T15:03:50.138Z,61.53
2022-09-17T15:06:21.073Z,61.54
2022-09-17T15:08:48.304Z,61.86
2022-09-17T15:11:15.995Z,61.37
2022-09-17T15:13:53.062Z,60.83
2022-09-17T15:16:25.778Z,60.36
2022-09-17T15:18:54.891Z,61.25
2022-09-17T15:21:31.348Z,59.88
2022-09-17T15:24:01.593Z,60.89
2022-09-17T15:26:32.127Z,60.34
2022-09-17T15:28:59.851Z,61.34
2022-09-17T15:31:28.514Z,62.02
2022-09-17T15:33:59.038Z,61.39
2022-09-17T15:36:31.684Z,61.59
2022-09-17T15:38:59.030Z,61.53
2022-09-17T15:41:29.806Z,61.29
2022-09-17T15:44:33.243Z,60.96
2022-09-17T15:47:19.071Z,63.11
2022-09-17T15:50:04.068Z,62.75
2022-09-17T15:52:34.298Z,62.96
2022-09-17T15:55:01.753Z,63.58
2022-09-17T15:57:31.015Z,64.25
2022-09-17T16:00:14.695Z,63.15
2022-09-17T16:02:41.986Z,62.93
2022-09-17T16:05:18.469Z,63.85
2022-09-17T16:07:45.720Z,62.63
2022-09-17T16:10:14.293Z,63.03
2022-09-17T16:12:41.791Z,62.77
2022-09-17T16:15:09.121Z,62.42
2022-09-17T16:17:36.536Z,62.85
2022-09-17T16:20:07.715Z,63.05
2022-09-17T16:22:35.184Z,63.02
2022-09-17T16:25:02.642Z,62.95
2022-09-17T16:27:32.331Z,64.49
2022-09-17T16:30:05.373Z,64.89
2022-09-17T16:32:32.511Z,64.96
2022-09-17T16:34:59.782Z,64.05
2022-09-17T16:37:26.935Z,64.64
2022-09-17T16:39:54.181Z,66.26
2022-09-17T16:42:21.356Z,64.26
2022-09-17T16:44:48.471Z,64.19
2022-09-17T16:47:15.741Z,64.97
2022-09-17T16:49:42.889Z,64.80
2022-09-17T16:52:10.033Z,64.52
2022-09-17T16:54:37.175Z,64.77
2022-09-17T16:57:04.737Z,65.47
2022-09-17T16:59:31.875Z,65.77
2022-09-17T17:01:59.055Z,65.59
2022-09-17T17:04:26.191Z,66.21
2022-09-17T17:06:53.265Z,67.11
2022-09-17T17:09:20.396Z,66.80
2022-09-17T17:11:47.542Z,67.28
2022-09-17T17:14:15.070Z,67.22
2022-09-17T17:16:43.647Z,66.49
2022-09-17T17:19:11.098Z,67.07
2022-09-17T17:21:38.788Z,67.67
2022-09-17T17:24:07.088Z,68.22
2022-09-17T17:26:34.323Z,68.53
2022-09-17T17:29:02.929Z,68.56
2022-09-17T17:31:30.119Z,69.22
2022-09-17T17:33:57.956Z,69.54
2022-09-17T17:36:25.117Z,70.15
2022-09-17T17:39:01.417Z,69.58
2022-09-17T17:41:28.603Z,69.19
2022-09-17T17:43:58.480Z,69.42
2022-09-17T17:46:25.757Z,69.52
2022-09-17T17:48:53.176Z,69.58
2022-09-17T17:51:20.381Z,69.57
2022-09-17T17:53:47.513Z,69.77
2022-09-17T17:56:14.687Z,69.23
2022-09-17T17:58:42.113Z,70.24
2022-09-17T18:01:13.026Z,69.99
2022-09-17T18:03:40.254Z,69.72
2022-09-17T18:06:07.810Z,69.76
2022-09-17T18:08:35.848Z,70.77
2022-09-17T18:11:05.679Z,69.98
2022-09-17T18:13:34.875Z,71.06
2022-09-17T18:16:02.444Z,70.87
2022-09-17T18:18:34.441Z,70.42
2022-09-17T18:21:02.544Z,70.81
2022-09-17T18:23:29.941Z,70.87
2022-09-17T18:25:58.708Z,71.21
2022-09-17T18:28:26.532Z,71.68
2022-09-17T18:30:54.338Z,71.49
2022-09-17T18:33:24.442Z,71.41
2022-09-17T18:35:56.849Z,71.67
2022-09-17T18:38:24.416Z,71.90
2022-09-17T18:40:51.713Z,72.07
2022-09-17T18:43:19.289Z,72.63
2022-09-17T18:45:53.663Z,72.80
2022-09-17T18:48:20.826Z,72.20
2022-09-17T18:51:06.780Z,72.51
2022-09-17T18:53:36.157Z,73.11
2022-09-17T18:56:20.152Z,73.45
2022-09-17T18:58:48.622Z,74.11
2022-09-17T19:01:16.272Z,72.31
2022-09-17T19:03:43.768Z,71.46
2022-09-17T19:06:11.862Z,71.79
2022-09-17T19:08:39.914Z,72.49
2022-09-17T19:11:07.160Z,72.13
2022-09-17T19:13:35.803Z,73.26
2022-09-17T19:16:03.440Z,73.99
2022-09-17T19:18:33.142Z,74.84
2022-09-17T19:21:00.937Z,74.78
2022-09-17T19:23:28.439Z,74.28
2022-09-17T19:25:55.652Z,74.13
2022-09-17T19:28:23.156Z,73.52
2022-09-17T19:30:50.398Z,72.78
2022-09-17T19:33:17.604Z,73.77
2022-09-17T19:35:44.738Z,73.73
2022-09-17T19:38:13.507Z,74.22
2022-09-17T19:40:41.182Z,74.44
2022-09-17T19:43:08.821Z,73.96
2022-09-17T19:45:36.145Z,73.95
2022-09-17T19:48:03.351Z,74.99
2022-09-17T19:50:31.790Z,76.00
2022-09-17T19:52:59.512Z,74.20
2022-09-17T19:55:29.012Z,74.13
2022-09-17T19:57:56.256Z,74.30
2022-09-17T20:00:23.402Z,74.69
2022-09-17T20:02:50.991Z,75.38
2022-09-17T20:05:18.211Z,75.47
2022-09-17T20:07:45.321Z,76.07
2022-09-17T20:10:12.407Z,75.75
2022-09-17T20:12:39.517Z,76.31
2022-09-17T20:15:06.803Z,76.72
2022-09-17T20:17:33.935Z,77.06
2022-09-17T20:20:01.096Z,78.13
2022-09-17T20:22:28.235Z,78.11
2022-09-17T20:24:55.533Z,78.80
2022-09-17T20:27:24.090Z,79.06
2022-09-17T20:29:51.312Z,79.24
2022-09-17T20:32:18.424Z,79.24
2022-09-17T20:34:45.666Z,80.12
2022-09-17T20:37:13.916Z,80.08
2022-09-17T20:39:41.307Z,80.02
2022-09-17T20:42:08.626Z,80.34
2022-09-17T20:44:36.270Z,81.06
2022-09-17T20:47:04.200Z,82.12
2022-09-17T20:49:31.523Z,82.79
2022-09-17T20:51:58.799Z,84.48
2022-09-17T20:54:25.942Z,84.90
2022-09-17T20:56:53.087Z,84.13
2022-09-17T20:59:24.860Z,82.66
2022-09-17T21:01:53.608Z,82.19
2022-09-17T21:04:21.829Z,82.03
2022-09-17T21:06:52.517Z,81.54
2022-09-17T21:09:20.106Z,82.29
2022-09-17T21:11:48.389Z,83.25
2022-09-17T21:14:16.126Z,82.17
2022-09-17T21:16:43.650Z,81.54
2022-09-17T21:19:12.032Z,80.83
2022-09-17T21:21:39.143Z,81.94
2022-09-17T21:24:07.078Z,82.26
2022-09-17T21:26:34.446Z,81.57
2022-09-17T21:29:01.811Z,80.78
2022-09-17T21:31:32.697Z,81.11
2022-09-17T21:34:02.330Z,80.58
2022-09-17T21:36:30.875Z,79.61
2022-09-17T21:38:59.491Z,78.20
2022-09-17T21:41:27.362Z,77.75
2022-09-17T21:43:54.658Z,77.88
2022-09-17T21:46:23.193Z,77.59
2022-09-17T21:48:52.133Z,78.57
2022-09-17T21:51:23.997Z,79.02
2022-09-17T21:53:51.915Z,79.85
2022-09-17T21:56:19.515Z,80.29
2022-09-17T21:58:50.520Z,80.68
2022-09-17T22:01:18.922Z,80.30
2022-09-17T22:03:46.248Z,80.89
2022-09-17T22:06:23.917Z,79.82
2022-09-17T22:08:52.203Z,78.71
2022-09-17T22:11:20.580Z,79.39
2022-09-17T22:13:55.322Z,79.19
2022-09-17T22:16:23.602Z,78.63
2022-09-17T22:18:51.437Z,78.27
2022-09-17T22:21:23.103Z,77.88
2022-09-17T22:23:51.200Z,78.56
2022-09-17T22:26:19.180Z,78.36
2022-09-17T22:28:46.465Z,77.94
2022-09-17T22:31:14.328Z,77.17
2022-09-17T22:33:45.360Z,77.31
2022-09-17T22:36:14.003Z,77.32
2022-09-17T22:38:41.666Z,77.34
2022-09-17T22:41:12.436Z,76.93
2022-09-17T22:43:40.037Z,77.18
2022-09-17T22:46:16.472Z,78.58
2022-09-17T22:48:44.079Z,78.17
2022-09-17T22:51:11.732Z,77.74
2022-09-17T22:53:39.436Z,78.16
2022-09-17T22:56:08.360Z,77.64
2022-09-17T22:58:35.500Z,78.43
2022-09-17T23:01:04.484Z,78.76
2022-09-17T23:03:31.909Z,78.14
2022-09-17T23:05:59.517Z,78.21
2022-09-17T23:08:26.942Z,78.93
2022-09-17T23:10:54.397Z,78.50
2022-09-17T23:13:21.892Z,78.97
2022-09-17T23:15:49.115Z,78.41
2022-09-17T23:18:16.361Z,78.65
2022-09-17T23:20:43.598Z,79.22
2022-09-17T23:23:11.424Z,79.38
2022-09-17T23:25:38.673Z,78.86
2022-09-17T23:28:05.871Z,77.86
2022-09-17T23:30:33.046Z,78.05
2022-09-17T23:33:00.198Z,77.97
2022-09-17T23:35:27.377Z,78.80
2022-09-17T23:37:54.596Z,78.66
2022-09-17T23:40:23.395Z,78.96
2022-09-17T23:42:50.640Z,77.32
2022-09-17T23:45:18.137Z,77.74
2022-09-17T23:47:45.491Z,78.79
2022-09-17T23:50:12.799Z,79.65
2022-09-17T23:52:40.352Z,78.90
2022-09-17T23:55:07.688Z,79.19
2022-09-17T23:57:35.380Z,79.16
